sensor_id;sensor_type;location;lat;lon;timestamp;temperature;humidity
67354;SHT30;54238;52.278;21.056;2023-01-20T00:01:51;3.01;81.09
67354;SHT30;54238;52.278;21.056;2023-01-20T00:04:26;2.99;81.05
67354;SHT30;54238;52.278;21.056;2023-01-20T00:06:58;2.97;81.02
67354;SHT30;54238;52.278;21.056;2023-01-20T00:09:34;2.93;81.00
67354;SHT30;54238;52.278;21.056;2023-01-20T00:12:03;2.90;81.04
67354;SHT30;54238;52.278;21.056;2023-01-20T00:14:37;2.88;81.13
67354;SHT30;54238;52.278;21.056;2023-01-20T00:17:06;2.86;81.20
67354;SHT30;54238;52.278;21.056;2023-01-20T00:19:34;2.83;81.22
67354;SHT30;54238;52.278;21.056;2023-01-20T00:22:01;2.81;81.26
67354;SHT30;54238;52.278;21.056;2023-01-20T00:24:31;2.78;81.37
67354;SHT30;54238;52.278;21.056;2023-01-20T00:26:58;2.78;81.49
67354;SHT30;54238;52.278;21.056;2023-01-20T00:29:30;2.78;81.47
67354;SHT30;54238;52.278;21.056;2023-01-20T00:31:58;2.77;81.40
67354;SHT30;54238;52.278;21.056;2023-01-20T00:34:29;2.75;81.48
67354;SHT30;54238;52.278;21.056;2023-01-20T00:36:56;2.75;81.52
67354;SHT30;54238;52.278;21.056;2023-01-20T00:39:26;2.75;81.53
67354;SHT30;54238;52.278;21.056;2023-01-20T00:44:28;2.74;81.46
67354;SHT30;54238;52.278;21.056;2023-01-20T00:46:58;2.71;81.49
67354;SHT30;54238;52.278;21.056;2023-01-20T00:49:27;2.68;81.46
67354;SHT30;54238;52.278;21.056;2023-01-20T00:51:57;2.65;81.58
67354;SHT30;54238;52.278;21.056;2023-01-20T00:54:24;2.64;81.71
67354;SHT30;54238;52.278;21.056;2023-01-20T00:56:53;2.63;81.70
67354;SHT30;54238;52.278;21.056;2023-01-20T00:59:24;2.62;81.80
67354;SHT30;54238;52.278;21.056;2023-01-20T01:01:54;2.61;81.88
67354;SHT30;54238;52.278;21.056;2023-01-20T01:04:21;2.62;81.93
67354;SHT30;54238;52.278;21.056;2023-01-20T01:06:49;2.62;81.90
67354;SHT30;54238;52.278;21.056;2023-01-20T01:09:16;2.62;81.96
67354;SHT30;54238;52.278;21.056;2023-01-20T01:11:44;2.63;81.91
67354;SHT30;54238;52.278;21.056;2023-01-20T01:14:13;2.62;81.89
67354;SHT30;54238;52.278;21.056;2023-01-20T01:16:48;2.61;81.86
67354;SHT30;54238;52.278;21.056;2023-01-20T01:19:18;2.60;81.93
67354;SHT30;54238;52.278;21.056;2023-01-20T01:21:48;2.55;81.95
67354;SHT30;54238;52.278;21.056;2023-01-20T01:24:18;2.53;82.08
67354;SHT30;54238;52.278;21.056;2023-01-20T01:26:45;2.53;82.22
67354;SHT30;54238;52.278;21.056;2023-01-20T01:32:13;2.54;82.35
67354;SHT30;54238;52.278;21.056;2023-01-20T01:34:43;2.54;82.30
67354;SHT30;54238;52.278;21.056;2023-01-20T01:37:13;2.53;82.32
67354;SHT30;54238;52.278;21.056;2023-01-20T01:39:40;2.53;82.40
67354;SHT30;54238;52.278;21.056;2023-01-20T01:42:14;2.53;82.40
67354;SHT30;54238;52.278;21.056;2023-01-20T01:47:59;2.50;82.50
67354;SHT30;54238;52.278;21.056;2023-01-20T01:50:43;2.51;82.46
67354;SHT30;54238;52.278;21.056;2023-01-20T01:53:18;2.51;82.55
67354;SHT30;54238;52.278;21.056;2023-01-20T01:55:57;2.53;82.57
67354;SHT30;54238;52.278;21.056;2023-01-20T01:58:33;2.52;82.51
67354;SHT30;54238;52.278;21.056;2023-01-20T02:01:09;2.50;82.59
67354;SHT30;54238;52.278;21.056;2023-01-20T02:03:39;2.48;82.64
67354;SHT30;54238;52.278;21.056;2023-01-20T02:06:15;2.49;82.70
67354;SHT30;54238;52.278;21.056;2023-01-20T02:08:54;2.50;82.78
67354;SHT30;54238;52.278;21.056;2023-01-20T02:11:24;2.52;82.84
67354;SHT30;54238;52.278;21.056;2023-01-20T02:14:01;2.57;82.90
67354;SHT30;54238;52.278;21.056;2023-01-20T02:16:41;2.60;82.81
67354;SHT30;54238;52.278;21.056;2023-01-20T02:19:39;2.61;82.66
67354;SHT30;54238;52.278;21.056;2023-01-20T02:37:25;2.63;82.63
67354;SHT30;54238;52.278;21.056;2023-01-20T02:43:09;2.64;82.60
67354;SHT30;54238;52.278;21.056;2023-01-20T02:45:49;2.66;82.63
67354;SHT30;54238;52.278;21.056;2023-01-20T02:51:13;2.72;82.64
67354;SHT30;54238;52.278;21.056;2023-01-20T02:53:55;2.75;82.64
67354;SHT30;54238;52.278;21.056;2023-01-20T02:56:33;2.78;82.66
67354;SHT30;54238;52.278;21.056;2023-01-20T02:59:09;2.78;82.60
67354;SHT30;54238;52.278;21.056;2023-01-20T03:01:42;2.81;82.68
67354;SHT30;54238;52.278;21.056;2023-01-20T03:04:17;2.83;82.68
67354;SHT30;54238;52.278;21.056;2023-01-20T03:06:55;2.86;82.60
67354;SHT30;54238;52.278;21.056;2023-01-20T03:09:27;2.88;82.50
67354;SHT30;54238;52.278;21.056;2023-01-20T03:12:26;2.90;82.51
67354;SHT30;54238;52.278;21.056;2023-01-20T03:15:12;2.92;82.48
67354;SHT30;54238;52.278;21.056;2023-01-20T03:17:47;2.94;82.41
67354;SHT30;54238;52.278;21.056;2023-01-20T03:20:16;2.93;82.38
67354;SHT30;54238;52.278;21.056;2023-01-20T03:22:47;2.94;82.42
67354;SHT30;54238;52.278;21.056;2023-01-20T03:25:16;2.98;82.43
67354;SHT30;54238;52.278;21.056;2023-01-20T03:27:49;2.99;82.30
67354;SHT30;54238;52.278;21.056;2023-01-20T03:30:21;2.99;82.32
67354;SHT30;54238;52.278;21.056;2023-01-20T03:32:50;3.00;82.32
67354;SHT30;54238;52.278;21.056;2023-01-20T03:35:21;3.00;82.27
67354;SHT30;54238;52.278;21.056;2023-01-20T03:37:52;3.00;82.19
67354;SHT30;54238;52.278;21.056;2023-01-20T03:40:22;2.99;82.05
67354;SHT30;54238;52.278;21.056;2023-01-20T03:43:08;2.97;82.09
67354;SHT30;54238;52.278;21.056;2023-01-20T03:45:49;2.99;82.17
67354;SHT30;54238;52.278;21.056;2023-01-20T03:48:45;2.99;82.11
67354;SHT30;54238;52.278;21.056;2023-01-20T03:51:33;3.00;82.10
67354;SHT30;54238;52.278;21.056;2023-01-20T03:54:23;3.02;82.20
67354;SHT30;54238;52.278;21.056;2023-01-20T03:57:05;3.04;82.16
67354;SHT30;54238;52.278;21.056;2023-01-20T03:59:42;3.04;81.91
67354;SHT30;54238;52.278;21.056;2023-01-20T04:02:18;3.03;81.75
67354;SHT30;54238;52.278;21.056;2023-01-20T04:04:49;3.01;81.55
67354;SHT30;54238;52.278;21.056;2023-01-20T04:07:24;2.97;81.51
67354;SHT30;54238;52.278;21.056;2023-01-20T04:09:55;2.97;81.65
67354;SHT30;54238;52.278;21.056;2023-01-20T04:12:32;2.96;81.61
67354;SHT30;54238;52.278;21.056;2023-01-20T04:15:03;2.93;81.53
67354;SHT30;54238;52.278;21.056;2023-01-20T04:17:35;2.90;81.61
67354;SHT30;54238;52.278;21.056;2023-01-20T04:20:04;2.89;81.77
67354;SHT30;54238;52.278;21.056;2023-01-20T04:25:13;2.93;81.90
67354;SHT30;54238;52.278;21.056;2023-01-20T04:27:51;2.95;81.93
67354;SHT30;54238;52.278;21.056;2023-01-20T04:30:20;2.97;82.00
67354;SHT30;54238;52.278;21.056;2023-01-20T04:32:50;3.00;81.86
67354;SHT30;54238;52.278;21.056;2023-01-20T04:35:23;3.00;81.82
67354;SHT30;54238;52.278;21.056;2023-01-20T04:37:55;3.02;81.81
67354;SHT30;54238;52.278;21.056;2023-01-20T04:40:25;3.02;81.78
67354;SHT30;54238;52.278;21.056;2023-01-20T04:42:56;3.03;81.80
67354;SHT30;54238;52.278;21.056;2023-01-20T04:48:07;3.12;81.74
67354;SHT30;54238;52.278;21.056;2023-01-20T04:53:34;3.12;81.51
67354;SHT30;54238;52.278;21.056;2023-01-20T04:56:10;3.12;81.47
67354;SHT30;54238;52.278;21.056;2023-01-20T04:58:39;3.15;81.53
67354;SHT30;54238;52.278;21.056;2023-01-20T05:01:12;3.17;81.56
67354;SHT30;54238;52.278;21.056;2023-01-20T05:03:41;3.19;81.35
67354;SHT30;54238;52.278;21.056;2023-01-20T05:06:16;3.21;81.28
67354;SHT30;54238;52.278;21.056;2023-01-20T05:08:44;3.22;81.24
67354;SHT30;54238;52.278;21.056;2023-01-20T05:11:13;3.20;81.09
67354;SHT30;54238;52.278;21.056;2023-01-20T05:13:47;3.18;81.12
67354;SHT30;54238;52.278;21.056;2023-01-20T05:16:14;3.17;81.13
67354;SHT30;54238;52.278;21.056;2023-01-20T05:18:41;3.16;81.13
67354;SHT30;54238;52.278;21.056;2023-01-20T05:21:15;3.15;81.26
67354;SHT30;54238;52.278;21.056;2023-01-20T05:23:42;3.16;81.40
67354;SHT30;54238;52.278;21.056;2023-01-20T05:26:17;3.14;81.26
67354;SHT30;54238;52.278;21.056;2023-01-20T05:28:48;3.13;81.30
67354;SHT30;54238;52.278;21.056;2023-01-20T05:31:17;3.12;81.36
67354;SHT30;54238;52.278;21.056;2023-01-20T05:33:46;3.13;81.47
67354;SHT30;54238;52.278;21.056;2023-01-20T05:36:16;3.18;81.54
67354;SHT30;54238;52.278;21.056;2023-01-20T05:38:45;3.20;81.40
67354;SHT30;54238;52.278;21.056;2023-01-20T05:41:17;3.22;81.32
67354;SHT30;54238;52.278;21.056;2023-01-20T05:43:51;3.20;81.21
67354;SHT30;54238;52.278;21.056;2023-01-20T05:46:23;3.20;81.22
67354;SHT30;54238;52.278;21.056;2023-01-20T05:48:50;3.19;81.23
67354;SHT30;54238;52.278;21.056;2023-01-20T05:51:17;3.19;81.20
67354;SHT30;54238;52.278;21.056;2023-01-20T05:53:47;3.18;81.26
67354;SHT30;54238;52.278;21.056;2023-01-20T05:56:16;3.18;81.39
67354;SHT30;54238;52.278;21.056;2023-01-20T05:58:46;3.20;81.48
67354;SHT30;54238;52.278;21.056;2023-01-20T06:01:16;3.22;81.47
67354;SHT30;54238;52.278;21.056;2023-01-20T06:03:47;3.24;81.40
67354;SHT30;54238;52.278;21.056;2023-01-20T06:06:19;3.28;81.40
67354;SHT30;54238;52.278;21.056;2023-01-20T06:08:50;3.29;81.33
67354;SHT30;54238;52.278;21.056;2023-01-20T06:11:21;3.30;81.43
67354;SHT30;54238;52.278;21.056;2023-01-20T06:13:53;3.32;81.32
67354;SHT30;54238;52.278;21.056;2023-01-20T06:16:27;3.32;81.14
67354;SHT30;54238;52.278;21.056;2023-01-20T06:18:55;3.33;81.14
67354;SHT30;54238;52.278;21.056;2023-01-20T06:21:26;3.35;81.10
67354;SHT30;54238;52.278;21.056;2023-01-20T06:24:00;3.36;81.14
67354;SHT30;54238;52.278;21.056;2023-01-20T06:26:30;3.42;81.19
67354;SHT30;54238;52.278;21.056;2023-01-20T06:28:57;3.45;81.03
67354;SHT30;54238;52.278;21.056;2023-01-20T06:31:28;3.47;80.96
67354;SHT30;54238;52.278;21.056;2023-01-20T06:34:00;3.49;80.98
67354;SHT30;54238;52.278;21.056;2023-01-20T06:36:29;3.52;80.95
67354;SHT30;54238;52.278;21.056;2023-01-20T06:38:56;3.57;80.90
67354;SHT30;54238;52.278;21.056;2023-01-20T06:41:26;3.64;80.89
67354;SHT30;54238;52.278;21.056;2023-01-20T06:43:55;3.70;80.71
67354;SHT30;54238;52.278;21.056;2023-01-20T06:46:25;3.76;80.60
67354;SHT30;54238;52.278;21.056;2023-01-20T06:48:57;3.81;80.47
67354;SHT30;54238;52.278;21.056;2023-01-20T06:51:26;3.83;80.21
67354;SHT30;54238;52.278;21.056;2023-01-20T06:54:00;3.82;80.05
67354;SHT30;54238;52.278;21.056;2023-01-20T06:56:28;3.81;80.05
67354;SHT30;54238;52.278;21.056;2023-01-20T06:59:02;3.81;80.05
67354;SHT30;54238;52.278;21.056;2023-01-20T07:01:32;3.80;80.13
67354;SHT30;54238;52.278;21.056;2023-01-20T07:03:59;3.83;80.18
67354;SHT30;54238;52.278;21.056;2023-01-20T07:06:28;3.87;80.12
67354;SHT30;54238;52.278;21.056;2023-01-20T07:09:06;3.88;79.89
67354;SHT30;54238;52.278;21.056;2023-01-20T07:11:38;3.87;79.82
67354;SHT30;54238;52.278;21.056;2023-01-20T07:14:06;3.88;79.88
67354;SHT30;54238;52.278;21.056;2023-01-20T07:16:34;3.89;79.84
67354;SHT30;54238;52.278;21.056;2023-01-20T07:19:04;3.91;79.82
67354;SHT30;54238;52.278;21.056;2023-01-20T07:21:32;3.91;79.66
67354;SHT30;54238;52.278;21.056;2023-01-20T07:24:01;3.90;79.65
67354;SHT30;54238;52.278;21.056;2023-01-20T07:26:29;3.91;79.75
67354;SHT30;54238;52.278;21.056;2023-01-20T07:29:01;3.93;79.62
67354;SHT30;54238;52.278;21.056;2023-01-20T07:31:31;3.95;79.66
67354;SHT30;54238;52.278;21.056;2023-01-20T07:34:00;3.99;79.61
67354;SHT30;54238;52.278;21.056;2023-01-20T07:36:27;4.00;79.46
67354;SHT30;54238;52.278;21.056;2023-01-20T07:38:54;4.00;79.52
67354;SHT30;54238;52.278;21.056;2023-01-20T07:41:26;4.00;79.50
67354;SHT30;54238;52.278;21.056;2023-01-20T07:43:53;4.00;79.50
67354;SHT30;54238;52.278;21.056;2023-01-20T07:46:23;4.01;79.50
67354;SHT30;54238;52.278;21.056;2023-01-20T07:48:50;4.03;79.47
67354;SHT30;54238;52.278;21.056;2023-01-20T07:51:26;4.06;79.40
67354;SHT30;54238;52.278;21.056;2023-01-20T07:53:52;4.13;79.34
67354;SHT30;54238;52.278;21.056;2023-01-20T07:56:21;4.14;79.09
67354;SHT30;54238;52.278;21.056;2023-01-20T08:01:08;4.17;78.93
67354;SHT30;54238;52.278;21.056;2023-01-20T08:03:44;4.17;78.98
67354;SHT30;54238;52.278;21.056;2023-01-20T08:06:15;4.20;79.08
67354;SHT30;54238;52.278;21.056;2023-01-20T08:08:46;4.19;78.98
67354;SHT30;54238;52.278;21.056;2023-01-20T08:11:21;4.18;79.06
67354;SHT30;54238;52.278;21.056;2023-01-20T08:13:53;4.18;79.02
67354;SHT30;54238;52.278;21.056;2023-01-20T08:16:25;4.19;79.03
67354;SHT30;54238;52.278;21.056;2023-01-20T08:18:54;4.19;78.91
67354;SHT30;54238;52.278;21.056;2023-01-20T08:21:22;4.19;78.85
67354;SHT30;54238;52.278;21.056;2023-01-20T08:23:55;4.19;78.87
67354;SHT30;54238;52.278;21.056;2023-01-20T08:26:31;4.18;78.98
67354;SHT30;54238;52.278;21.056;2023-01-20T08:29:03;4.18;79.07
67354;SHT30;54238;52.278;21.056;2023-01-20T08:31:36;4.20;78.99
67354;SHT30;54238;52.278;21.056;2023-01-20T08:34:06;4.21;78.90
67354;SHT30;54238;52.278;21.056;2023-01-20T08:36:41;4.22;78.62
67354;SHT30;54238;52.278;21.056;2023-01-20T08:39:16;4.23;78.58
67354;SHT30;54238;52.278;21.056;2023-01-20T08:41:46;4.27;78.53
67354;SHT30;54238;52.278;21.056;2023-01-20T08:44:17;4.31;78.35
67354;SHT30;54238;52.278;21.056;2023-01-20T08:46:49;4.34;78.17
67354;SHT30;54238;52.278;21.056;2023-01-20T08:49:21;4.37;78.02
67354;SHT30;54238;52.278;21.056;2023-01-20T08:51:52;4.41;77.89
67354;SHT30;54238;52.278;21.056;2023-01-20T08:54:21;4.43;78.00
67354;SHT30;54238;52.278;21.056;2023-01-20T08:56:54;4.49;77.98
67354;SHT30;54238;52.278;21.056;2023-01-20T08:59:29;4.53;77.70
67354;SHT30;54238;52.278;21.056;2023-01-20T09:02:03;4.58;77.71
67354;SHT30;54238;52.278;21.056;2023-01-20T09:04:34;4.63;77.60
67354;SHT30;54238;52.278;21.056;2023-01-20T09:07:04;4.64;77.20
67354;SHT30;54238;52.278;21.056;2023-01-20T09:09:32;4.63;77.09
67354;SHT30;54238;52.278;21.056;2023-01-20T09:11:59;4.64;77.13
67354;SHT30;54238;52.278;21.056;2023-01-20T09:17:01;4.74;76.69
67354;SHT30;54238;52.278;21.056;2023-01-20T09:19:31;4.74;76.61
67354;SHT30;54238;52.278;21.056;2023-01-20T09:22:00;4.75;76.35
67354;SHT30;54238;52.278;21.056;2023-01-20T09:24:34;4.78;76.26
67354;SHT30;54238;52.278;21.056;2023-01-20T09:27:00;4.83;76.12
67354;SHT30;54238;52.278;21.056;2023-01-20T09:29:30;4.86;75.97
67354;SHT30;54238;52.278;21.056;2023-01-20T09:32:00;4.85;75.91
67354;SHT30;54238;52.278;21.056;2023-01-20T09:38:58;4.82;75.72
67354;SHT30;54238;52.278;21.056;2023-01-20T09:41:46;4.80;75.69
67354;SHT30;54238;52.278;21.056;2023-01-20T09:53:27;4.68;76.17
67354;SHT30;54238;52.278;21.056;2023-01-20T09:56:13;4.67;76.18
67354;SHT30;54238;52.278;21.056;2023-01-20T09:58:49;4.65;76.15
67354;SHT30;54238;52.278;21.056;2023-01-20T10:01:30;4.64;76.19
67354;SHT30;54238;52.278;21.056;2023-01-20T10:12:26;4.63;75.77
67354;SHT30;54238;52.278;21.056;2023-01-20T10:14:54;4.65;75.83
67354;SHT30;54238;52.278;21.056;2023-01-20T10:17:35;4.67;75.79
67354;SHT30;54238;52.278;21.056;2023-01-20T10:20:06;4.67;75.82
67354;SHT30;54238;52.278;21.056;2023-01-20T10:26:19;4.62;75.66
67354;SHT30;54238;52.278;21.056;2023-01-20T10:29:04;4.59;75.85
67354;SHT30;54238;52.278;21.056;2023-01-20T10:31:46;4.56;76.10
67354;SHT30;54238;52.278;21.056;2023-01-20T10:34:37;4.56;76.00
67354;SHT30;54238;52.278;21.056;2023-01-20T10:37:15;4.55;75.89
67354;SHT30;54238;52.278;21.056;2023-01-20T10:40:08;4.57;75.70
67354;SHT30;54238;52.278;21.056;2023-01-20T10:43:00;4.60;75.65
67354;SHT30;54238;52.278;21.056;2023-01-20T10:57:11;4.80;75.02
67354;SHT30;54238;52.278;21.056;2023-01-20T11:02:32;4.89;74.91
67354;SHT30;54238;52.278;21.056;2023-01-20T11:05:09;4.90;75.01
67354;SHT30;54238;52.278;21.056;2023-01-20T11:07:53;4.91;74.79
67354;SHT30;54238;52.278;21.056;2023-01-20T11:10:26;4.94;74.68
67354;SHT30;54238;52.278;21.056;2023-01-20T11:13:01;4.95;74.76
67354;SHT30;54238;52.278;21.056;2023-01-20T11:15:31;4.96;74.82
67354;SHT30;54238;52.278;21.056;2023-01-20T11:18:18;4.93;74.93
67354;SHT30;54238;52.278;21.056;2023-01-20T11:20:50;4.92;75.21
67354;SHT30;54238;52.278;21.056;2023-01-20T11:26:21;4.87;75.26
67354;SHT30;54238;52.278;21.056;2023-01-20T11:39:34;4.95;74.70
67354;SHT30;54238;52.278;21.056;2023-01-20T11:42:27;4.98;74.66
67354;SHT30;54238;52.278;21.056;2023-01-20T11:45:21;4.99;74.55
67354;SHT30;54238;52.278;21.056;2023-01-20T11:48:37;4.95;74.57
67354;SHT30;54238;52.278;21.056;2023-01-20T11:50:53;4.91;74.69
67354;SHT30;54238;52.278;21.056;2023-01-20T11:53:28;4.87;74.77
67354;SHT30;54238;52.278;21.056;2023-01-20T11:56:03;4.85;74.88
67354;SHT30;54238;52.278;21.056;2023-01-20T11:58:54;4.84;75.00
67354;SHT30;54238;52.278;21.056;2023-01-20T12:01:26;4.80;75.01
67354;SHT30;54238;52.278;21.056;2023-01-20T12:07:01;4.73;74.92
67354;SHT30;54238;52.278;21.056;2023-01-20T12:09:40;4.66;75.06
67354;SHT30;54238;52.278;21.056;2023-01-20T12:15:14;4.53;75.42
67354;SHT30;54238;52.278;21.056;2023-01-20T12:18:05;4.49;75.54
67354;SHT30;54238;52.278;21.056;2023-01-20T12:20:49;4.47;75.51
67354;SHT30;54238;52.278;21.056;2023-01-20T12:26:32;4.35;75.82
67354;SHT30;54238;52.278;21.056;2023-01-20T12:29:11;4.32;75.83
67354;SHT30;54238;52.278;21.056;2023-01-20T12:31:48;4.30;75.84
67354;SHT30;54238;52.278;21.056;2023-01-20T12:34:29;4.31;75.95
67354;SHT30;54238;52.278;21.056;2023-01-20T12:40:15;4.35;76.06
67354;SHT30;54238;52.278;21.056;2023-01-20T12:46:25;4.39;75.83
67354;SHT30;54238;52.278;21.056;2023-01-20T12:52:16;4.41;75.53
67354;SHT30;54238;52.278;21.056;2023-01-20T12:55:10;4.40;75.32
67354;SHT30;54238;52.278;21.056;2023-01-20T12:58:02;4.38;75.25
67354;SHT30;54238;52.278;21.056;2023-01-20T13:15:44;4.54;74.51
67354;SHT30;54238;52.278;21.056;2023-01-20T13:21:32;4.56;74.21
67354;SHT30;54238;52.278;21.056;2023-01-20T13:24:03;4.54;74.26
67354;SHT30;54238;52.278;21.056;2023-01-20T13:26:34;4.54;74.16
67354;SHT30;54238;52.278;21.056;2023-01-20T13:29:07;4.54;74.13
67354;SHT30;54238;52.278;21.056;2023-01-20T13:37:47;4.51;74.51
67354;SHT30;54238;52.278;21.056;2023-01-20T13:42:56;4.49;74.77
67354;SHT30;54238;52.278;21.056;2023-01-20T13:45:23;4.45;74.81
67354;SHT30;54238;52.278;21.056;2023-01-20T13:50:43;4.37;75.04
67354;SHT30;54238;52.278;21.056;2023-01-20T13:58:14;4.22;75.00
67354;SHT30;54238;52.278;21.056;2023-01-20T14:00:54;4.20;75.08
67354;SHT30;54238;52.278;21.056;2023-01-20T14:03:31;4.21;75.00
67354;SHT30;54238;52.278;21.056;2023-01-20T14:08:50;4.16;74.96
67354;SHT30;54238;52.278;21.056;2023-01-20T14:11:18;4.13;75.00
67354;SHT30;54238;52.278;21.056;2023-01-20T14:14:16;4.11;75.09
67354;SHT30;54238;52.278;21.056;2023-01-20T14:16:58;4.10;74.94
67354;SHT30;54238;52.278;21.056;2023-01-20T14:19:29;4.07;74.87
67354;SHT30;54238;52.278;21.056;2023-01-20T14:27:20;3.93;75.14
67354;SHT30;54238;52.278;21.056;2023-01-20T14:30:42;3.88;75.21
67354;SHT30;54238;52.278;21.056;2023-01-20T14:32:57;3.86;75.39
67354;SHT30;54238;52.278;21.056;2023-01-20T14:35:33;3.89;75.42
67354;SHT30;54238;52.278;21.056;2023-01-20T14:38:02;3.92;75.47
67354;SHT30;54238;52.278;21.056;2023-01-20T14:40:31;3.90;75.57
67354;SHT30;54238;52.278;21.056;2023-01-20T14:43:03;3.90;75.73
67354;SHT30;54238;52.278;21.056;2023-01-20T14:45:46;3.88;75.89
67354;SHT30;54238;52.278;21.056;2023-01-20T14:48:20;3.88;75.92
67354;SHT30;54238;52.278;21.056;2023-01-20T14:50:50;3.89;75.92
67354;SHT30;54238;52.278;21.056;2023-01-20T14:53:21;3.90;75.89
67354;SHT30;54238;52.278;21.056;2023-01-20T14:55:58;3.87;75.77
67354;SHT30;54238;52.278;21.056;2023-01-20T14:58:29;3.87;75.79
67354;SHT30;54238;52.278;21.056;2023-01-20T15:01:02;3.85;75.75
67354;SHT30;54238;52.278;21.056;2023-01-20T15:03:36;3.82;75.81
67354;SHT30;54238;52.278;21.056;2023-01-20T15:14:29;3.78;75.79
67354;SHT30;54238;52.278;21.056;2023-01-20T15:21:46;3.76;75.85
67354;SHT30;54238;52.278;21.056;2023-01-20T15:24:44;3.75;75.87
67354;SHT30;54238;52.278;21.056;2023-01-20T15:27:21;3.75;76.01
67354;SHT30;54238;52.278;21.056;2023-01-20T15:30:28;3.73;76.13
67354;SHT30;54238;52.278;21.056;2023-01-20T15:32:57;3.73;76.19
67354;SHT30;54238;52.278;21.056;2023-01-20T15:35:24;3.73;76.20
67354;SHT30;54238;52.278;21.056;2023-01-20T15:37:53;3.73;76.30
67354;SHT30;54238;52.278;21.056;2023-01-20T15:40:24;3.73;76.30
67354;SHT30;54238;52.278;21.056;2023-01-20T15:42:54;3.71;76.34
67354;SHT30;54238;52.278;21.056;2023-01-20T15:45:26;3.71;76.48
67354;SHT30;54238;52.278;21.056;2023-01-20T15:47:54;3.72;76.49
67354;SHT30;54238;52.278;21.056;2023-01-20T15:50:26;3.71;76.47
67354;SHT30;54238;52.278;21.056;2023-01-20T15:52:53;3.70;76.45
67354;SHT30;54238;52.278;21.056;2023-01-20T15:55:20;3.68;76.50
67354;SHT30;54238;52.278;21.056;2023-01-20T16:00:27;3.66;76.70
67354;SHT30;54238;52.278;21.056;2023-01-20T16:05:34;3.66;76.69
67354;SHT30;54238;52.278;21.056;2023-01-20T16:10:44;3.58;76.70
67354;SHT30;54238;52.278;21.056;2023-01-20T16:13:15;3.57;76.63
67354;SHT30;54238;52.278;21.056;2023-01-20T16:15:56;3.53;76.56
67354;SHT30;54238;52.278;21.056;2023-01-20T16:18:23;3.49;76.55
67354;SHT30;54238;52.278;21.056;2023-01-20T16:20:50;3.45;76.54
67354;SHT30;54238;52.278;21.056;2023-01-20T16:23:37;3.46;76.53
67354;SHT30;54238;52.278;21.056;2023-01-20T16:28:55;3.44;76.33
67354;SHT30;54238;52.278;21.056;2023-01-20T16:31:29;3.43;76.28
67354;SHT30;54238;52.278;21.056;2023-01-20T16:33:58;3.38;76.38
67354;SHT30;54238;52.278;21.056;2023-01-20T16:36:28;3.34;76.56
67354;SHT30;54238;52.278;21.056;2023-01-20T16:38:58;3.30;76.56
67354;SHT30;54238;52.278;21.056;2023-01-20T16:41:30;3.25;76.73
67354;SHT30;54238;52.278;21.056;2023-01-20T16:44:00;3.23;76.82
67354;SHT30;54238;52.278;21.056;2023-01-20T16:46:30;3.19;76.99
67354;SHT30;54238;52.278;21.056;2023-01-20T16:48:59;3.16;77.19
67354;SHT30;54238;52.278;21.056;2023-01-20T16:51:29;3.12;77.33
67354;SHT30;54238;52.278;21.056;2023-01-20T16:54:00;3.06;77.54
67354;SHT30;54238;52.278;21.056;2023-01-20T16:56:31;3.02;77.70
67354;SHT30;54238;52.278;21.056;2023-01-20T16:59:01;3.00;77.70
67354;SHT30;54238;52.278;21.056;2023-01-20T17:01:32;2.99;77.70
67354;SHT30;54238;52.278;21.056;2023-01-20T17:04:00;2.97;77.80
67354;SHT30;54238;52.278;21.056;2023-01-20T17:09:08;2.98;77.72
67354;SHT30;54238;52.278;21.056;2023-01-20T17:14:19;2.96;77.77
67354;SHT30;54238;52.278;21.056;2023-01-20T17:16:51;2.97;77.68
67354;SHT30;54238;52.278;21.056;2023-01-20T17:19:22;3.01;77.70
67354;SHT30;54238;52.278;21.056;2023-01-20T17:21:52;3.03;77.61
67354;SHT30;54238;52.278;21.056;2023-01-20T17:24:26;3.01;77.46
67354;SHT30;54238;52.278;21.056;2023-01-20T17:26:55;3.00;77.53
67354;SHT30;54238;52.278;21.056;2023-01-20T17:29:22;3.00;77.51
67354;SHT30;54238;52.278;21.056;2023-01-20T17:31:59;2.95;77.52
67354;SHT30;54238;52.278;21.056;2023-01-20T17:34:30;2.95;77.70
67354;SHT30;54238;52.278;21.056;2023-01-20T17:36:58;2.95;77.66
67354;SHT30;54238;52.278;21.056;2023-01-20T17:39:30;2.98;77.73
67354;SHT30;54238;52.278;21.056;2023-01-20T17:42:02;2.98;77.72
67354;SHT30;54238;52.278;21.056;2023-01-20T17:44:29;2.98;77.66
67354;SHT30;54238;52.278;21.056;2023-01-20T17:46:59;2.98;77.65
67354;SHT30;54238;52.278;21.056;2023-01-20T17:49:26;2.98;77.64
67354;SHT30;54238;52.278;21.056;2023-01-20T17:51:55;3.01;77.67
67354;SHT30;54238;52.278;21.056;2023-01-20T17:54:25;3.04;77.53
67354;SHT30;54238;52.278;21.056;2023-01-20T17:56:56;3.07;77.56
67354;SHT30;54238;52.278;21.056;2023-01-20T17:59:23;3.10;77.54
67354;SHT30;54238;52.278;21.056;2023-01-20T18:05:01;3.14;77.31
67354;SHT30;54238;52.278;21.056;2023-01-20T18:07:34;3.13;77.28
67354;SHT30;54238;52.278;21.056;2023-01-20T18:10:01;3.11;77.41
67354;SHT30;54238;52.278;21.056;2023-01-20T18:12:34;3.14;77.42
67354;SHT30;54238;52.278;21.056;2023-01-20T18:15:06;3.13;77.37
67354;SHT30;54238;52.278;21.056;2023-01-20T18:17:38;3.14;77.38
67354;SHT30;54238;52.278;21.056;2023-01-20T18:20:09;3.16;77.40
67354;SHT30;54238;52.278;21.056;2023-01-20T18:25:16;3.23;77.31
67354;SHT30;54238;52.278;21.056;2023-01-20T18:30:26;3.32;77.11
67354;SHT30;54238;52.278;21.056;2023-01-20T18:32:55;3.37;77.06
67354;SHT30;54238;52.278;21.056;2023-01-20T18:35:37;3.43;76.96
67354;SHT30;54238;52.278;21.056;2023-01-20T18:38:06;3.45;76.88
67354;SHT30;54238;52.278;21.056;2023-01-20T18:40:33;3.46;76.85
67354;SHT30;54238;52.278;21.056;2023-01-20T18:43:00;3.49;76.74
67354;SHT30;54238;52.278;21.056;2023-01-20T18:45:32;3.48;76.56
67354;SHT30;54238;52.278;21.056;2023-01-20T18:48:01;3.49;76.61
67354;SHT30;54238;52.278;21.056;2023-01-20T18:50:37;3.51;76.57
67354;SHT30;54238;52.278;21.056;2023-01-20T18:53:11;3.54;76.44
67354;SHT30;54238;52.278;21.056;2023-01-20T18:55:41;3.56;76.37
67354;SHT30;54238;52.278;21.056;2023-01-20T18:58:10;3.57;76.28
67354;SHT30;54238;52.278;21.056;2023-01-20T19:00:42;3.55;76.28
67354;SHT30;54238;52.278;21.056;2023-01-20T19:03:12;3.52;76.24
67354;SHT30;54238;52.278;21.056;2023-01-20T19:05:41;3.50;76.30
67354;SHT30;54238;52.278;21.056;2023-01-20T19:08:12;3.51;76.28
67354;SHT30;54238;52.278;21.056;2023-01-20T19:10:41;3.51;76.13
67354;SHT30;54238;52.278;21.056;2023-01-20T19:13:09;3.49;76.20
67354;SHT30;54238;52.278;21.056;2023-01-20T19:15:41;3.44;76.21
67354;SHT30;54238;52.278;21.056;2023-01-20T19:18:16;3.46;76.35
67354;SHT30;54238;52.278;21.056;2023-01-20T19:20:42;3.49;76.26
67354;SHT30;54238;52.278;21.056;2023-01-20T19:23:12;3.50;76.27